sensor_id;sensor_type;location;lat;lon;timestamp;P1;durP1;ratioP1;P2;durP2;ratioP2
14408;SDS011;7289;50.706;4.992;2023-03-15T00:01:31;0.30;;;0.30;;
14408;SDS011;7289;50.706;4.992;2023-03-15T00:04:01;0.30;;;0.30;;
14408;SDS011;7289;50.706;4.992;2023-03-15T00:06:31;0.30;;;0.30;;
14408;SDS011;7289;50.706;4.992;2023-03-15T00:09:00;0.30;;;0.30;;
14408;SDS011;7289;50.706;4.992;2023-03-15T00:11:28;0.30;;;0.30;;
14408;SDS011;7289;50.706;4.992;2023-03-15T00:13:58;0.30;;;0.30;;
14408;SDS011;7289;50.706;4.992;2023-03-15T00:16:28;0.30;;;0.30;;
14408;SDS011;7289;50.706;4.992;2023-03-15T00:18:58;0.30;;;0.30;;
14408;SDS011;7289;50.706;4.992;2023-03-15T00:21:28;0.30;;;0.30;;
14408;SDS011;7289;50.706;4.992;2023-03-15T00:23:56;0.30;;;0.30;;
14408;SDS011;7289;50.706;4.992;2023-03-15T00:26:24;0.30;;;0.30;;
14408;SDS011;7289;50.706;4.992;2023-03-15T00:28:53;0.30;;;0.30;;
14408;SDS011;7289;50.706;4.992;2023-03-15T00:31:22;0.30;;;0.30;;
14408;SDS011;7289;50.706;4.992;2023-03-15T00:33:52;0.30;;;0.30;;
14408;SDS011;7289;50.706;4.992;2023-03-15T00:36:21;0.30;;;0.30;;
14408;SDS011;7289;50.706;4.992;2023-03-15T00:38:54;0.30;;;0.30;;
14408;SDS011;7289;50.706;4.992;2023-03-15T00:41:23;0.20;;;0.20;;
14408;SDS011;7289;50.706;4.992;2023-03-15T00:43:51;0.30;;;0.30;;
14408;SDS011;7289;50.706;4.992;2023-03-15T00:46:20;0.30;;;0.30;;
14408;SDS011;7289;50.706;4.992;2023-03-15T00:48:49;0.30;;;0.30;;
14408;SDS011;7289;50.706;4.992;2023-03-15T00:51:18;0.30;;;0.30;;
14408;SDS011;7289;50.706;4.992;2023-03-15T00:53:48;0.30;;;0.30;;
14408;SDS011;7289;50.706;4.992;2023-03-15T00:56:20;0.30;;;0.30;;
14408;SDS011;7289;50.706;4.992;2023-03-15T00:58:50;0.30;;;0.30;;
14408;SDS011;7289;50.706;4.992;2023-03-15T01:01:20;0.20;;;0.20;;
14408;SDS011;7289;50.706;4.992;2023-03-15T01:03:50;0.27;;;0.27;;
14408;SDS011;7289;50.706;4.992;2023-03-15T01:06:19;0.27;;;0.27;;
14408;SDS011;7289;50.706;4.992;2023-03-15T01:08:49;0.20;;;0.20;;
14408;SDS011;7289;50.706;4.992;2023-03-15T01:11:18;0.30;;;0.30;;
14408;SDS011;7289;50.706;4.992;2023-03-15T01:13:50;0.30;;;0.30;;
14408;SDS011;7289;50.706;4.992;2023-03-15T01:16:19;0.20;;;0.20;;
14408;SDS011;7289;50.706;4.992;2023-03-15T01:18:48;0.30;;;0.30;;
14408;SDS011;7289;50.706;4.992;2023-03-15T01:21:18;0.30;;;0.30;;
14408;SDS011;7289;50.706;4.992;2023-03-15T01:23:48;0.30;;;0.30;;
14408;SDS011;7289;50.706;4.992;2023-03-15T01:26:21;0.20;;;0.20;;
14408;SDS011;7289;50.706;4.992;2023-03-15T01:28:50;0.20;;;0.20;;
14408;SDS011;7289;50.706;4.992;2023-03-15T01:31:19;0.30;;;0.30;;
14408;SDS011;7289;50.706;4.992;2023-03-15T01:33:49;0.30;;;0.30;;
14408;SDS011;7289;50.706;4.992;2023-03-15T01:36:18;0.20;;;0.20;;
14408;SDS011;7289;50.706;4.992;2023-03-15T01:38:46;0.30;;;0.30;;
14408;SDS011;7289;50.706;4.992;2023-03-15T01:41:19;0.30;;;0.30;;
14408;SDS011;7289;50.706;4.992;2023-03-15T01:43:52;0.20;;;0.20;;
14408;SDS011;7289;50.706;4.992;2023-03-15T01:46:22;0.23;;;0.23;;
14408;SDS011;7289;50.706;4.992;2023-03-15T01:48:58;0.30;;;0.30;;
14408;SDS011;7289;50.706;4.992;2023-03-15T01:51:35;0.20;;;0.20;;
14408;SDS011;7289;50.706;4.992;2023-03-15T01:54:11;0.20;;;0.20;;
14408;SDS011;7289;50.706;4.992;2023-03-15T01:56:45;0.30;;;0.30;;
14408;SDS011;7289;50.706;4.992;2023-03-15T01:59:21;0.30;;;0.30;;
14408;SDS011;7289;50.706;4.992;2023-03-15T02:01:53;0.30;;;0.30;;
14408;SDS011;7289;50.706;4.992;2023-03-15T02:04:23;0.30;;;0.30;;
14408;SDS011;7289;50.706;4.992;2023-03-15T02:06:55;0.20;;;0.20;;
14408;SDS011;7289;50.706;4.992;2023-03-15T02:09:31;0.30;;;0.30;;
14408;SDS011;7289;50.706;4.992;2023-03-15T02:12:04;0.23;;;0.23;;
14408;SDS011;7289;50.706;4.992;2023-03-15T02:14:34;0.30;;;0.30;;
14408;SDS011;7289;50.706;4.992;2023-03-15T02:17:05;0.30;;;0.30;;
14408;SDS011;7289;50.706;4.992;2023-03-15T02:19:36;0.30;;;0.30;;
14408;SDS011;7289;50.706;4.992;2023-03-15T02:22:15;0.20;;;0.20;;
14408;SDS011;7289;50.706;4.992;2023-03-15T02:24:55;0.20;;;0.20;;
14408;SDS011;7289;50.706;4.992;2023-03-15T02:27:31;0.30;;;0.30;;
14408;SDS011;7289;50.706;4.992;2023-03-15T02:30:02;0.30;;;0.30;;
14408;SDS011;7289;50.706;4.992;2023-03-15T02:32:32;0.20;;;0.20;;
14408;SDS011;7289;50.706;4.992;2023-03-15T02:35:00;0.30;;;0.30;;
14408;SDS011;7289;50.706;4.992;2023-03-15T02:37:29;0.20;;;0.20;;
14408;SDS011;7289;50.706;4.992;2023-03-15T02:39:57;0.30;;;0.30;;
14408;SDS011;7289;50.706;4.992;2023-03-15T02:42:25;0.30;;;0.30;;
14408;SDS011;7289;50.706;4.992;2023-03-15T02:44:57;0.20;;;0.20;;
14408;SDS011;7289;50.706;4.992;2023-03-15T02:47:26;0.30;;;0.30;;
14408;SDS011;7289;50.706;4.992;2023-03-15T02:49:58;0.20;;;0.20;;
14408;SDS011;7289;50.706;4.992;2023-03-15T02:52:27;0.20;;;0.20;;
14408;SDS011;7289;50.706;4.992;2023-03-15T02:54:56;0.30;;;0.30;;
14408;SDS011;7289;50.706;4.992;2023-03-15T02:57:24;0.30;;;0.30;;
14408;SDS011;7289;50.706;4.992;2023-03-15T02:59:54;0.20;;;0.20;;
14408;SDS011;7289;50.706;4.992;2023-03-15T03:02:24;0.30;;;0.30;;
14408;SDS011;7289;50.706;4.992;2023-03-15T03:04:52;0.20;;;0.20;;
14408;SDS011;7289;50.706;4.992;2023-03-15T03:07:21;0.20;;;0.20;;
14408;SDS011;7289;50.706;4.992;2023-03-15T03:09:55;0.20;;;0.20;;
14408;SDS011;7289;50.706;4.992;2023-03-15T03:12:25;0.20;;;0.20;;
14408;SDS011;7289;50.706;4.992;2023-03-15T03:14:53;0.20;;;0.20;;
14408;SDS011;7289;50.706;4.992;2023-03-15T03:17:24;0.20;;;0.20;;
14408;SDS011;7289;50.706;4.992;2023-03-15T03:19:53;0.30;;;0.30;;
14408;SDS011;7289;50.706;4.992;2023-03-15T03:22:29;0.20;;;0.20;;
14408;SDS011;7289;50.706;4.992;2023-03-15T03:24:57;0.20;;;0.20;;
14408;SDS011;7289;50.706;4.992;2023-03-15T03:27:25;0.20;;;0.20;;
14408;SDS011;7289;50.706;4.992;2023-03-15T03:29:55;0.20;;;0.20;;
14408;SDS011;7289;50.706;4.992;2023-03-15T03:32:24;0.27;;;0.27;;
14408;SDS011;7289;50.706;4.992;2023-03-15T03:34:53;0.30;;;0.30;;
14408;SDS011;7289;50.706;4.992;2023-03-15T03:37:22;0.20;;;0.20;;
14408;SDS011;7289;50.706;4.992;2023-03-15T03:39:57;0.20;;;0.20;;
14408;SDS011;7289;50.706;4.992;2023-03-15T03:42:25;0.30;;;0.30;;
14408;SDS011;7289;50.706;4.992;2023-03-15T03:44:54;0.30;;;0.30;;
14408;SDS011;7289;50.706;4.992;2023-03-15T03:47:30;0.30;;;0.30;;
14408;SDS011;7289;50.706;4.992;2023-03-15T03:49:59;0.30;;;0.30;;
14408;SDS011;7289;50.706;4.992;2023-03-15T03:52:28;0.30;;;0.30;;
14408;SDS011;7289;50.706;4.992;2023-03-15T03:55:04;0.30;;;0.30;;
14408;SDS011;7289;50.706;4.992;2023-03-15T03:57:33;0.30;;;0.30;;
14408;SDS011;7289;50.706;4.992;2023-03-15T04:00:05;0.30;;;0.30;;
14408;SDS011;7289;50.706;4.992;2023-03-15T04:02:41;0.20;;;0.20;;
14408;SDS011;7289;50.706;4.992;2023-03-15T04:05:12;0.30;;;0.30;;
14408;SDS011;7289;50.706;4.992;2023-03-15T04:07:42;0.30;;;0.30;;
14408;SDS011;7289;50.706;4.992;2023-03-15T04:10:13;0.30;;;0.30;;
14408;SDS011;7289;50.706;4.992;2023-03-15T04:12:45;0.30;;;0.30;;
14408;SDS011;7289;50.706;4.992;2023-03-15T04:15:14;0.20;;;0.20;;
14408;SDS011;7289;50.706;4.992;2023-03-15T04:17:43;0.20;;;0.20;;
14408;SDS011;7289;50.706;4.992;2023-03-15T04:20:12;0.20;;;0.20;;
14408;SDS011;7289;50.706;4.992;2023-03-15T04:22:43;0.20;;;0.20;;
14408;SDS011;7289;50.706;4.992;2023-03-15T04:25:24;0.30;;;0.30;;
14408;SDS011;7289;50.706;4.992;2023-03-15T04:28:13;0.20;;;0.20;;
14408;SDS011;7289;50.706;4.992;2023-03-15T04:30:48;0.27;;;0.27;;
14408;SDS011;7289;50.706;4.992;2023-03-15T04:33:41;0.30;;;0.30;;
14408;SDS011;7289;50.706;4.992;2023-03-15T04:36:27;0.20;;;0.20;;
14408;SDS011;7289;50.706;4.992;2023-03-15T04:39:01;0.30;;;0.30;;
14408;SDS011;7289;50.706;4.992;2023-03-15T04:41:45;0.30;;;0.30;;
14408;SDS011;7289;50.706;4.992;2023-03-15T04:44:38;0.20;;;0.20;;
14408;SDS011;7289;50.706;4.992;2023-03-15T04:47:36;0.30;;;0.30;;
14408;SDS011;7289;50.706;4.992;2023-03-15T04:50:27;0.30;;;0.30;;
14408;SDS011;7289;50.706;4.992;2023-03-15T04:53:06;0.30;;;0.30;;
14408;SDS011;7289;50.706;4.992;2023-03-15T04:56:09;0.30;;;0.30;;
14408;SDS011;7289;50.706;4.992;2023-03-15T04:58:56;0.30;;;0.30;;
14408;SDS011;7289;50.706;4.992;2023-03-15T05:01:44;0.30;;;0.30;;
14408;SDS011;7289;50.706;4.992;2023-03-15T05:04:19;0.30;;;0.30;;
14408;SDS011;7289;50.706;4.992;2023-03-15T05:07:08;0.20;;;0.20;;
14408;SDS011;7289;50.706;4.992;2023-03-15T05:10:06;0.30;;;0.30;;
14408;SDS011;7289;50.706;4.992;2023-03-15T05:12:55;0.20;;;0.20;;
14408;SDS011;7289;50.706;4.992;2023-03-15T05:15:35;0.23;;;0.23;;
14408;SDS011;7289;50.706;4.992;2023-03-15T05:18:25;0.20;;;0.20;;
14408;SDS011;7289;50.706;4.992;2023-03-15T05:21:08;0.30;;;0.30;;
14408;SDS011;7289;50.706;4.992;2023-03-15T05:23:57;0.30;;;0.30;;
14408;SDS011;7289;50.706;4.992;2023-03-15T05:26:31;0.20;;;0.20;;
14408;SDS011;7289;50.706;4.992;2023-03-15T05:29:16;0.20;;;0.20;;
14408;SDS011;7289;50.706;4.992;2023-03-15T05:31:56;0.20;;;0.20;;
14408;SDS011;7289;50.706;4.992;2023-03-15T05:34:30;0.23;;;0.23;;
14408;SDS011;7289;50.706;4.992;2023-03-15T05:37:17;0.20;;;0.20;;
14408;SDS011;7289;50.706;4.992;2023-03-15T05:40:09;0.20;;;0.20;;
14408;SDS011;7289;50.706;4.992;2023-03-15T05:42:58;0.30;;;0.30;;
14408;SDS011;7289;50.706;4.992;2023-03-15T05:45:44;0.20;;;0.20;;
14408;SDS011;7289;50.706;4.992;2023-03-15T05:48:36;0.30;;;0.30;;
14408;SDS011;7289;50.706;4.992;2023-03-15T05:51:13;0.30;;;0.30;;
14408;SDS011;7289;50.706;4.992;2023-03-15T05:54:00;0.20;;;0.20;;
14408;SDS011;7289;50.706;4.992;2023-03-15T05:56:48;0.20;;;0.20;;
14408;SDS011;7289;50.706;4.992;2023-03-15T05:59:40;0.30;;;0.30;;
14408;SDS011;7289;50.706;4.992;2023-03-15T06:02:20;0.30;;;0.30;;
14408;SDS011;7289;50.706;4.992;2023-03-15T06:05:08;0.23;;;0.23;;
14408;SDS011;7289;50.706;4.992;2023-03-15T06:07:37;0.30;;;0.30;;
14408;SDS011;7289;50.706;4.992;2023-03-15T06:10:06;0.20;;;0.20;;
14408;SDS011;7289;50.706;4.992;2023-03-15T06:12:36;0.30;;;0.30;;
14408;SDS011;7289;50.706;4.992;2023-03-15T06:15:05;0.20;;;0.20;;
14408;SDS011;7289;50.706;4.992;2023-03-15T06:17:34;0.30;;;0.30;;
14408;SDS011;7289;50.706;4.992;2023-03-15T06:20:02;0.30;;;0.30;;
14408;SDS011;7289;50.706;4.992;2023-03-15T06:22:32;0.20;;;0.20;;
14408;SDS011;7289;50.706;4.992;2023-03-15T06:25:08;0.20;;;0.20;;
14408;SDS011;7289;50.706;4.992;2023-03-15T06:27:39;0.30;;;0.30;;
14408;SDS011;7289;50.706;4.992;2023-03-15T06:30:08;0.20;;;0.20;;
14408;SDS011;7289;50.706;4.992;2023-03-15T06:32:37;0.20;;;0.20;;
14408;SDS011;7289;50.706;4.992;2023-03-15T06:35:06;0.30;;;0.30;;
14408;SDS011;7289;50.706;4.992;2023-03-15T06:37:35;0.23;;;0.23;;
14408;SDS011;7289;50.706;4.992;2023-03-15T06:40:08;0.30;;;0.30;;
14408;SDS011;7289;50.706;4.992;2023-03-15T06:42:37;0.20;;;0.20;;
14408;SDS011;7289;50.706;4.992;2023-03-15T06:45:10;0.20;;;0.20;;
14408;SDS011;7289;50.706;4.992;2023-03-15T06:47:39;0.20;;;0.20;;
14408;SDS011;7289;50.706;4.992;2023-03-15T06:50:09;0.30;;;0.30;;
14408;SDS011;7289;50.706;4.992;2023-03-15T06:52:38;0.30;;;0.30;;
14408;SDS011;7289;50.706;4.992;2023-03-15T06:55:07;0.30;;;0.30;;
14408;SDS011;7289;50.706;4.992;2023-03-15T06:57:40;0.27;;;0.27;;
14408;SDS011;7289;50.706;4.992;2023-03-15T07:00:10;0.20;;;0.20;;
14408;SDS011;7289;50.706;4.992;2023-03-15T07:02:39;0.20;;;0.20;;
14408;SDS011;7289;50.706;4.992;2023-03-15T07:05:08;0.20;;;0.20;;
14408;SDS011;7289;50.706;4.992;2023-03-15T07:07:37;0.20;;;0.20;;
14408;SDS011;7289;50.706;4.992;2023-03-15T07:10:06;0.20;;;0.20;;
14408;SDS011;7289;50.706;4.992;2023-03-15T07:12:35;0.20;;;0.20;;
14408;SDS011;7289;50.706;4.992;2023-03-15T07:15:05;0.20;;;0.20;;
14408;SDS011;7289;50.706;4.992;2023-03-15T07:17:34;0.20;;;0.20;;
14408;SDS011;7289;50.706;4.992;2023-03-15T07:20:03;0.20;;;0.20;;
14408;SDS011;7289;50.706;4.992;2023-03-15T07:22:32;0.20;;;0.20;;
14408;SDS011;7289;50.706;4.992;2023-03-15T07:25:01;0.20;;;0.20;;
14408;SDS011;7289;50.706;4.992;2023-03-15T07:27:30;0.20;;;0.20;;
14408;SDS011;7289;50.706;4.992;2023-03-15T07:29:58;0.20;;;0.20;;
14408;SDS011;7289;50.706;4.992;2023-03-15T07:32:28;0.20;;;0.20;;
14408;SDS011;7289;50.706;4.992;2023-03-15T07:34:58;0.20;;;0.20;;
14408;SDS011;7289;50.706;4.992;2023-03-15T07:37:26;0.20;;;0.20;;
14408;SDS011;7289;50.706;4.992;2023-03-15T07:39:55;0.20;;;0.20;;
14408;SDS011;7289;50.706;4.992;2023-03-15T07:42:26;0.20;;;0.20;;
14408;SDS011;7289;50.706;4.992;2023-03-15T07:44:58;0.20;;;0.20;;
14408;SDS011;7289;50.706;4.992;2023-03-15T07:47:28;0.20;;;0.20;;
14408;SDS011;7289;50.706;4.992;2023-03-15T07:49:57;0.20;;;0.20;;
14408;SDS011;7289;50.706;4.992;2023-03-15T07:52:25;0.20;;;0.20;;
14408;SDS011;7289;50.706;4.992;2023-03-15T07:54:54;0.20;;;0.20;;
14408;SDS011;7289;50.706;4.992;2023-03-15T07:57:22;0.20;;;0.20;;
14408;SDS011;7289;50.706;4.992;2023-03-15T07:59:54;0.20;;;0.20;;
14408;SDS011;7289;50.706;4.992;2023-03-15T08:02:24;0.20;;;0.20;;
14408;SDS011;7289;50.706;4.992;2023-03-15T08:04:57;0.20;;;0.20;;
14408;SDS011;7289;50.706;4.992;2023-03-15T08:07:25;0.20;;;0.20;;
14408;SDS011;7289;50.706;4.992;2023-03-15T08:09:53;0.20;;;0.20;;
14408;SDS011;7289;50.706;4.992;2023-03-15T08:12:23;0.20;;;0.20;;
14408;SDS011;7289;50.706;4.992;2023-03-15T08:14:52;0.20;;;0.20;;
14408;SDS011;7289;50.706;4.992;2023-03-15T08:17:20;0.20;;;0.20;;
14408;SDS011;7289;50.706;4.992;2023-03-15T08:19:48;0.20;;;0.20;;
14408;SDS011;7289;50.706;4.992;2023-03-15T08:22:18;0.20;;;0.20;;
14408;SDS011;7289;50.706;4.992;2023-03-15T08:24:47;0.20;;;0.20;;
14408;SDS011;7289;50.706;4.992;2023-03-15T08:27:15;0.20;;;0.20;;
14408;SDS011;7289;50.706;4.992;2023-03-15T08:29:44;0.20;;;0.20;;
14408;SDS011;7289;50.706;4.992;2023-03-15T08:32:12;0.20;;;0.20;;
14408;SDS011;7289;50.706;4.992;2023-03-15T08:34:42;0.20;;;0.20;;
14408;SDS011;7289;50.706;4.992;2023-03-15T08:37:11;0.20;;;0.20;;
14408;SDS011;7289;50.706;4.992;2023-03-15T08:39:41;0.20;;;0.20;;
14408;SDS011;7289;50.706;4.992;2023-03-15T08:42:10;0.20;;;0.20;;
14408;SDS011;7289;50.706;4.992;2023-03-15T08:44:39;0.20;;;0.20;;
14408;SDS011;7289;50.706;4.992;2023-03-15T08:47:08;0.20;;;0.20;;
14408;SDS011;7289;50.706;4.992;2023-03-15T08:49:37;0.17;;;0.17;;
14408;SDS011;7289;50.706;4.992;2023-03-15T08:52:06;0.20;;;0.20;;
14408;SDS011;7289;50.706;4.992;2023-03-15T08:54:34;0.20;;;0.20;;
14408;SDS011;7289;50.706;4.992;2023-03-15T08:57:04;0.20;;;0.20;;
14408;SDS011;7289;50.706;4.992;2023-03-15T08:59:33;0.20;;;0.20;;
14408;SDS011;7289;50.706;4.992;2023-03-15T09:02:01;0.20;;;0.20;;
14408;SDS011;7289;50.706;4.992;2023-03-15T09:04:29;0.20;;;0.20;;
14408;SDS011;7289;50.706;4.992;2023-03-15T09:06:58;0.20;;;0.20;;
14408;SDS011;7289;50.706;4.992;2023-03-15T09:09:27;0.13;;;0.13;;
14408;SDS011;7289;50.706;4.992;2023-03-15T09:11:55;0.20;;;0.20;;
14408;SDS011;7289;50.706;4.992;2023-03-15T09:14:25;0.20;;;0.20;;
14408;SDS011;7289;50.706;4.992;2023-03-15T09:16:54;0.20;;;0.20;;
14408;SDS011;7289;50.706;4.992;2023-03-15T09:19:22;0.20;;;0.20;;
14408;SDS011;7289;50.706;4.992;2023-03-15T09:21:52;0.20;;;0.20;;
14408;SDS011;7289;50.706;4.992;2023-03-15T09:24:22;0.20;;;0.20;;
14408;SDS011;7289;50.706;4.992;2023-03-15T09:26:51;0.20;;;0.20;;
14408;SDS011;7289;50.706;4.992;2023-03-15T09:29:19;0.20;;;0.20;;
14408;SDS011;7289;50.706;4.992;2023-03-15T09:31:49;0.10;;;0.10;;
14408;SDS011;7289;50.706;4.992;2023-03-15T09:34:17;0.20;;;0.20;;
14408;SDS011;7289;50.706;4.992;2023-03-15T09:36:47;0.20;;;0.20;;
14408;SDS011;7289;50.706;4.992;2023-03-15T09:39:19;0.20;;;0.20;;
14408;SDS011;7289;50.706;4.992;2023-03-15T09:41:49;0.20;;;0.20;;
14408;SDS011;7289;50.706;4.992;2023-03-15T09:44:23;0.20;;;0.20;;
14408;SDS011;7289;50.706;4.992;2023-03-15T09:47:04;0.20;;;0.20;;
14408;SDS011;7289;50.706;4.992;2023-03-15T09:49:43;0.20;;;0.20;;
14408;SDS011;7289;50.706;4.992;2023-03-15T09:52:20;0.20;;;0.20;;
14408;SDS011;7289;50.706;4.992;2023-03-15T09:54:56;0.20;;;0.20;;
14408;SDS011;7289;50.706;4.992;2023-03-15T09:57:30;0.13;;;0.13;;
14408;SDS011;7289;50.706;4.992;2023-03-15T10:00:04;0.20;;;0.20;;
14408;SDS011;7289;50.706;4.992;2023-03-15T10:02:41;0.20;;;0.20;;
14408;SDS011;7289;50.706;4.992;2023-03-15T10:05:15;0.20;;;0.20;;
14408;SDS011;7289;50.706;4.992;2023-03-15T10:07:47;0.20;;;0.20;;
14408;SDS011;7289;50.706;4.992;2023-03-15T10:10:16;0.20;;;0.20;;
14408;SDS011;7289;50.706;4.992;2023-03-15T10:12:48;0.20;;;0.20;;
14408;SDS011;7289;50.706;4.992;2023-03-15T10:15:28;0.20;;;0.20;;
14408;SDS011;7289;50.706;4.992;2023-03-15T10:20:55;0.10;;;0.10;;
14408;SDS011;7289;50.706;4.992;2023-03-15T10:23:36;0.20;;;0.20;;
14408;SDS011;7289;50.706;4.992;2023-03-15T10:26:13;0.20;;;0.20;;
14408;SDS011;7289;50.706;4.992;2023-03-15T10:28:45;0.20;;;0.20;;
14408;SDS011;7289;50.706;4.992;2023-03-15T10:31:17;0.20;;;0.20;;
14408;SDS011;7289;50.706;4.992;2023-03-15T10:34:10;0.17;;;0.17;;
14408;SDS011;7289;50.706;4.992;2023-03-15T10:36:42;0.10;;;0.10;;
14408;SDS011;7289;50.706;4.992;2023-03-15T10:39:12;0.10;;;0.10;;
14408;SDS011;7289;50.706;4.992;2023-03-15T10:41:41;0.10;;;0.10;;
14408;SDS011;7289;50.706;4.992;2023-03-15T10:44:12;0.13;;;0.13;;
14408;SDS011;7289;50.706;4.992;2023-03-15T10:46:44;0.17;;;0.17;;
14408;SDS011;7289;50.706;4.992;2023-03-15T10:49:37;0.20;;;0.20;;
14408;SDS011;7289;50.706;4.992;2023-03-15T10:52:23;0.20;;;0.20;;
14408;SDS011;7289;50.706;4.992;2023-03-15T10:55:04;0.20;;;0.20;;
14408;SDS011;7289;50.706;4.992;2023-03-15T10:57:38;0.20;;;0.20;;
14408;SDS011;7289;50.706;4.992;2023-03-15T11:00:20;0.10;;;0.10;;
14408;SDS011;7289;50.706;4.992;2023-03-15T11:03:00;0.10;;;0.10;;
14408;SDS011;7289;50.706;4.992;2023-03-15T11:05:31;0.10;;;0.10;;
14408;SDS011;7289;50.706;4.992;2023-03-15T11:08:10;0.10;;;0.10;;
14408;SDS011;7289;50.706;4.992;2023-03-15T11:10:41;0.20;;;0.20;;
14408;SDS011;7289;50.706;4.992;2023-03-15T11:13:12;0.10;;;0.10;;
14408;SDS011;7289;50.706;4.992;2023-03-15T11:15:48;0.20;;;0.20;;
14408;SDS011;7289;50.706;4.992;2023-03-15T11:18:25;0.10;;;0.10;;
14408;SDS011;7289;50.706;4.992;2023-03-15T11:20:57;0.17;;;0.17;;
14408;SDS011;7289;50.706;4.992;2023-03-15T11:23:28;0.10;;;0.10;;
14408;SDS011;7289;50.706;4.992;2023-03-15T11:26:01;0.20;;;0.20;;
14408;SDS011;7289;50.706;4.992;2023-03-15T11:28:30;0.10;;;0.10;;
14408;SDS011;7289;50.706;4.992;2023-03-15T11:31:01;0.20;;;0.20;;
14408;SDS011;7289;50.706;4.992;2023-03-15T11:33:42;0.20;;;0.20;;
14408;SDS011;7289;50.706;4.992;2023-03-15T11:36:16;0.20;;;0.20;;
14408;SDS011;7289;50.706;4.992;2023-03-15T11:38:48;0.17;;;0.17;;
14408;SDS011;7289;50.706;4.992;2023-03-15T11:41:23;0.20;;;0.20;;
14408;SDS011;7289;50.706;4.992;2023-03-15T11:44:01;0.20;;;0.20;;
14408;SDS011;7289;50.706;4.992;2023-03-15T11:46:38;0.20;;;0.20;;
14408;SDS011;7289;50.706;4.992;2023-03-15T11:49:11;0.20;;;0.20;;
14408;SDS011;7289;50.706;4.992;2023-03-15T11:51:45;0.20;;;0.20;;
14408;SDS011;7289;50.706;4.992;2023-03-15T11:54:14;0.20;;;0.20;;
14408;SDS011;7289;50.706;4.992;2023-03-15T11:56:45;0.20;;;0.20;;
14408;SDS011;7289;50.706;4.992;2023-03-15T11:59:16;0.13;;;0.13;;
14408;SDS011;7289;50.706;4.992;2023-03-15T12:01:47;0.20;;;0.20;;
14408;SDS011;7289;50.706;4.992;2023-03-15T12:07:22;0.20;;;0.20;;
14408;SDS011;7289;50.706;4.992;2023-03-15T12:13:17;0.20;;;0.20;;
14408;SDS011;7289;50.706;4.992;2023-03-15T12:15:48;0.10;;;0.10;;
14408;SDS011;7289;50.706;4.992;2023-03-15T12:18:37;0.10;;;0.10;;
14408;SDS011;7289;50.706;4.992;2023-03-15T12:21:14;0.20;;;0.20;;
14408;SDS011;7289;50.706;4.992;2023-03-15T12:23:54;0.10;;;0.10;;
14408;SDS011;7289;50.706;4.992;2023-03-15T12:26:26;0.20;;;0.20;;
14408;SDS011;7289;50.706;4.992;2023-03-15T12:29:04;0.10;;;0.10;;
14408;SDS011;7289;50.706;4.992;2023-03-15T12:31:42;0.10;;;0.10;;
14408;SDS011;7289;50.706;4.992;2023-03-15T12:34:22;0.10;;;0.10;;
14408;SDS011;7289;50.706;4.992;2023-03-15T12:36:54;0.10;;;0.10;;
14408;SDS011;7289;50.706;4.992;2023-03-15T12:39:38;0.13;;;0.13;;
14408;SDS011;7289;50.706;4.992;2023-03-15T12:45:37;0.10;;;0.10;;
14408;SDS011;7289;50.706;4.992;2023-03-15T12:48:17;0.20;;;0.20;;
14408;SDS011;7289;50.706;4.992;2023-03-15T12:51:03;0.13;;;0.13;;
14408;SDS011;7289;50.706;4.992;2023-03-15T12:53:39;0.10;;;0.10;;
14408;SDS011;7289;50.706;4.992;2023-03-15T13:01:59;0.10;;;0.10;;
14408;SDS011;7289;50.706;4.992;2023-03-15T13:04:29;0.10;;;0.10;;
14408;SDS011;7289;50.706;4.992;2023-03-15T13:07:13;0.10;;;0.10;;
14408;SDS011;7289;50.706;4.992;2023-03-15T13:09:59;0.13;;;0.13;;
14408;SDS011;7289;50.706;4.992;2023-03-15T13:12:51;0.10;;;0.10;;
14408;SDS011;7289;50.706;4.992;2023-03-15T13:15:28;0.10;;;0.10;;
14408;SDS011;7289;50.706;4.992;2023-03-15T13:18:02;0.10;;;0.10;;
14408;SDS011;7289;50.706;4.992;2023-03-15T13:20:56;0.10;;;0.10;;
14408;SDS011;7289;50.706;4.992;2023-03-15T13:23:33;0.10;;;0.10;;
14408;SDS011;7289;50.706;4.992;2023-03-15T13:26:04;0.10;;;0.10;;
14408;SDS011;7289;50.706;4.992;2023-03-15T13:28:47;0.15;;;0.15;;
14408;SDS011;7289;50.706;4.992;2023-03-15T13:31:19;0.10;;;0.10;;
14408;SDS011;7289;50.706;4.992;2023-03-15T13:33:50;0.10;;;0.10;;
14408;SDS011;7289;50.706;4.992;2023-03-15T13:36:23;0.10;;;0.10;;
14408;SDS011;7289;50.706;4.992;2023-03-15T13:38:54;0.10;;;0.10;;
14408;SDS011;7289;50.706;4.992;2023-03-15T13:41:24;0.10;;;0.10;;
14408;SDS011;7289;50.706;4.992;2023-03-15T13:43:56;0.20;;;0.20;;
14408;SDS011;7289;50.706;4.992;2023-03-15T13:46:26;0.20;;;0.20;;
14408;SDS011;7289;50.706;4.992;2023-03-15T13:48:58;0.17;;;0.17;;
14408;SDS011;7289;50.706;4.992;2023-03-15T13:51:29;0.10;;;0.10;;
14408;SDS011;7289;50.706;4.992;2023-03-15T13:54:02;0.10;;;0.10;;
14408;SDS011;7289;50.706;4.992;2023-03-15T13:56:32;0.10;;;0.10;;
14408;SDS011;7289;50.706;4.992;2023-03-15T13:59:16;0.10;;;0.10;;
14408;SDS011;7289;50.706;4.992;2023-03-15T14:01:45;0.10;;;0.10;;
14408;SDS011;7289;50.706;4.992;2023-03-15T14:04:19;0.10;;;0.10;;
14408;SDS011;7289;50.706;4.992;2023-03-15T14:06:50;0.10;;;0.10;;
14408;SDS011;7289;50.706;4.992;2023-03-15T14:09:45;0.10;;;0.10;;
14408;SDS011;7289;50.706;4.992;2023-03-15T14:12:17;0.10;;;0.10;;
14408;SDS011;7289;50.706;4.992;2023-03-15T14:14:50;0.10;;;0.10;;
14408;SDS011;7289;50.706;4.992;2023-03-15T14:17:23;0.10;;;0.10;;
14408;SDS011;7289;50.706;4.992;2023-03-15T14:19:53;0.13;;;0.13;;
14408;SDS011;7289;50.706;4.992;2023-03-15T14:22:32;0.20;;;0.20;;
14408;SDS011;7289;50.706;4.992;2023-03-15T14:25:02;0.10;;;0.10;;
14408;SDS011;7289;50.706;4.992;2023-03-15T14:27:45;0.10;;;0.10;;
14408;SDS011;7289;50.706;4.992;2023-03-15T14:30:18;0.10;;;0.10;;
14408;SDS011;7289;50.706;4.992;2023-03-15T14:32:52;0.20;;;0.20;;
14408;SDS011;7289;50.706;4.992;2023-03-15T14:35:23;0.10;;;0.10;;
14408;SDS011;7289;50.706;4.992;2023-03-15T14:37:59;0.10;;;0.10;;
14408;SDS011;7289;50.706;4.992;2023-03-15T14:40:31;0.10;;;0.10;;
14408;SDS011;7289;50.706;4.992;2023-03-15T14:43:01;0.10;;;0.10;;
14408;SDS011;7289;50.706;4.992;2023-03-15T14:45:32;0.20;;;0.20;;
14408;SDS011;7289;50.706;4.992;2023-03-15T14:48:04;0.10;;;0.10;;
14408;SDS011;7289;50.706;4.992;2023-03-15T14:50:35;0.13;;;0.13;;
14408;SDS011;7289;50.706;4.992;2023-03-15T14:53:05;0.10;;;0.10;;
14408;SDS011;7289;50.706;4.992;2023-03-15T14:55:35;0.10;;;0.10;;
14408;SDS011;7289;50.706;4.992;2023-03-15T14:58:08;0.10;;;0.10;;
14408;SDS011;7289;50.706;4.992;2023-03-15T15:00:40;0.10;;;0.10;;
14408;SDS011;7289;50.706;4.992;2023-03-15T15:03:12;0.10;;;0.10;;
14408;SDS011;7289;50.706;4.992;2023-03-15T15:05:44;0.10;;;0.10;;
14408;SDS011;7289;50.706;4.992;2023-03-15T15:08:14;0.10;;;0.10;;
14408;SDS011;7289;50.706;4.992;2023-03-15T15:10:45;0.10;;;0.10;;
14408;SDS011;7289;50.706;4.992;2023-03-15T15:13:16;0.13;;;0.13;;
14408;SDS011;7289;50.706;4.992;2023-03-15T15:15:48;0.10;;;0.10;;
14408;SDS011;7289;50.706;4.992;2023-03-15T15:18:22;0.10;;;0.10;;
14408;SDS011;7289;50.706;4.992;2023-03-15T15:20:51;0.10;;;0.10;;
14408;SDS011;7289;50.706;4.992;2023-03-15T15:23:22;0.10;;;0.10;;
14408;SDS011;7289;50.706;4.992;2023-03-15T15:25:53;0.10;;;0.10;;
14408;SDS011;7289;50.706;4.992;2023-03-15T15:28:24;0.10;;;0.10;;
14408;SDS011;7289;50.706;4.992;2023-03-15T15:31:03;0.10;;;0.10;;
14408;SDS011;7289;50.706;4.992;2023-03-15T15:33:32;0.10;;;0.10;;
14408;SDS011;7289;50.706;4.992;2023-03-15T15:36:00;0.10;;;0.10;;
14408;SDS011;7289;50.706;4.992;2023-03-15T15:38:30;0.13;;;0.13;;
14408;SDS011;7289;50.706;4.992;2023-03-15T15:41:04;0.13;;;0.13;;
14408;SDS011;7289;50.706;4.992;2023-03-15T15:43:37;0.10;;;0.10;;
14408;SDS011;7289;50.706;4.992;2023-03-15T15:46:08;0.10;;;0.10;;
14408;SDS011;7289;50.706;4.992;2023-03-15T15:48:38;0.10;;;0.10;;
14408;SDS011;7289;50.706;4.992;2023-03-15T15:51:15;0.10;;;0.10;;
14408;SDS011;7289;50.706;4.992;2023-03-15T15:53:47;0.15;;;0.15;;
14408;SDS011;7289;50.706;4.992;2023-03-15T15:56:16;0.10;;;0.10;;